Flight Track Log - Related Links

Times and Time Zones

All times are in EDT time to prevent confusion due to time zone crossing. See the SLG3 flight status page for this flight to view local times or setup timezone preferences in your user account.

Time Position Orientation Groundspeed Altitude Reporting Facility
EDT Latitude Longitude Course Direction KTS MPH feet Rate Location/Type
Sat 06:06:55 PM 53.5167 -113.4833 119° Southeast 150 173 4,200  Level Edmonton Center
Sat 06:07:55 PM 53.5000 -113.4333 119° Southeast 150 173 6,300 1,850 Climbing Edmonton Center
Sat 06:08:55 PM 53.4833 -113.3667 113° Southeast 170 196 7,900 1,800 Climbing Edmonton Center
Sat 06:09:55 PM 53.4667 -113.2833 109° East 180 207 9,900 1,900 Climbing Edmonton Center
Sat 06:10:55 PM 53.4500 -113.1833 106° East 180 207 11,700 1,750 Climbing Edmonton Center
Sat 06:11:55 PM 53.4333 -113.1333 119° Southeast 180 207 13,400 1,800 Climbing Edmonton Center
Sat 06:12:55 PM 53.4167 -113.0333 106° East 190 219 15,300 1,750 Climbing Edmonton Center
Sat 06:13:55 PM 53.4167 -112.9500 90° East 190 219 16,900 1,650 Climbing Edmonton Center
Sat 06:14:55 PM 53.4000 -112.8667 109° East 200 230 18,600 1,550 Climbing Edmonton Center
Sat 06:15:55 PM 53.3667 -112.7667 119° Southeast 200 230 20,000 1,300 Climbing Edmonton Center
Sat 06:16:55 PM 53.3667 -112.6833 90° East 210 242 21,200 1,300 Climbing Edmonton Center
Sat 06:17:55 PM 53.3500 -112.5667 103° East 210 242 22,600 1,300 Climbing Edmonton Center
Sat 06:18:55 PM 53.3167 -112.4833 124° Southeast 210 242 23,800 1,200 Climbing Edmonton Center
Sat 06:19:55 PM 53.3167 -112.3833 90° East 210 242 25,000 600 Climbing Edmonton Center
Sat 06:20:55 PM 53.2833 -112.2667 116° Southeast 230 265 25,000  Level Edmonton Center
Sat 06:21:55 PM 53.2833 -112.1500 90° East 260 299 25,000  Level Edmonton Center
Sat 06:22:55 PM 53.2500 -112.0333 115° Southeast 270 311 25,000  Level Edmonton Center
Sat 06:23:55 PM 53.2167 -111.9000 113° Southeast 280 322 25,000  Level Edmonton Center
Sat 06:24:55 PM 53.2000 -111.7833 103° East 280 322 25,000  Level Edmonton Center
Sat 06:25:55 PM 53.1833 -111.6667 103° East 280 322 25,000  Level Edmonton Center
Sat 06:26:55 PM 53.1667 -111.5500 103° East 280 322 25,000  Level Edmonton Center
Sat 06:27:55 PM 53.1333 -111.4333 115° Southeast 280 322 25,000  Level Edmonton Center
Sat 06:28:55 PM 53.1000 -111.2833 110° East 270 311 25,000  Level Edmonton Center
Sat 06:29:55 PM 53.1000 -111.1667 90° East 280 322 25,000  Level Edmonton Center
Sat 06:30:55 PM 53.0667 -111.0500 115° Southeast 280 322 25,000  Level Edmonton Center
Sat 06:31:55 PM 53.0333 -110.9333 115° Southeast 280 322 25,000  Level Edmonton Center
Sat 06:32:55 PM 53.0167 -110.8167 103° East 280 322 25,000  Level Edmonton Center
Sat 06:33:55 PM 53.0000 -110.6667 100° East 280 322 25,000  Level Edmonton Center
Sat 06:34:55 PM 52.9833 -110.5500 103° East 280 322 25,000  Level Edmonton Center
Sat 06:35:55 PM 52.9500 -110.4167 112° Southeast 280 322 25,000  Level Edmonton Center
Sat 06:36:55 PM 52.9167 -110.3000 115° Southeast 280 322 25,000  Level Edmonton Center
Sat 06:37:55 PM 52.9000 -110.1833 103° East 280 322 25,000 5,122 Level Edmonton Center
Sat 06:38:17 PM 50.9667 -98.1500 100° East 480 552 32,000  Climbing Edmonton Center
Sat 06:38:41 PM 52.8833 -110.1167 289° West 280 322 25,000 -5,000 Descending Winnipeg Center
Sat 06:39:41 PM 52.8667 -110.0000 103° East 280 322 25,000  Level Winnipeg Center
Sat 06:40:41 PM 52.8500 -109.8833 103° East 280 322 25,000  Level Winnipeg Center
Sat 06:41:41 PM 52.8167 -109.7500 112° Southeast 280 322 25,000  Level Winnipeg Center
Sat 06:42:41 PM 52.7833 -109.6333 115° Southeast 290 334 25,000  Level Winnipeg Center
Sat 06:43:41 PM 52.7667 -109.4833 100° East 290 334 25,000  Level Winnipeg Center
Sat 06:44:41 PM 52.7333 -109.3667 115° Southeast 280 322 25,000  Level Winnipeg Center
Sat 06:45:41 PM 52.7167 -109.2500 103° East 280 322 25,000  Level Winnipeg Center
Sat 06:46:41 PM 52.6833 -109.1333 115° Southeast 280 322 25,000  Level Winnipeg Center
Sat 06:47:41 PM 52.6667 -109.0167 103° East 280 322 25,000  Level Winnipeg Center
Sat 06:48:41 PM 52.6333 -108.8833 112° Southeast 280 322 25,000  Level Winnipeg Center
Sat 06:49:41 PM 52.6000 -108.7667 115° Southeast 280 322 25,000  Level Winnipeg Center
Sat 06:50:41 PM 52.5833 -108.6500 103° East 280 322 25,000 -600 Level Winnipeg Center
Sat 06:51:41 PM 52.5500 -108.5000 110° East 290 334 23,800 -1,400 Descending Winnipeg Center
Sat 06:52:41 PM 52.5333 -108.3833 103° East 300 345 22,200 -1,650 Descending Winnipeg Center
Sat 06:53:41 PM 52.4833 -108.2667 125° Southeast 300 345 20,500 -1,650 Descending Winnipeg Center
Sat 06:54:41 PM 52.4667 -108.1333 102° East 310 357 18,900 -1,650 Descending Winnipeg Center
Sat 06:55:41 PM 52.4333 -108.0000 112° Southeast 310 357 17,200 -1,600 Descending Winnipeg Center
Sat 06:56:41 PM 52.4000 -107.8667 112° Southeast 310 357 15,700 -1,600 Descending Winnipeg Center
Sat 06:57:41 PM 52.3667 -107.7333 112° Southeast 310 357 14,000 -1,600 Descending Winnipeg Center
Sat 06:58:41 PM 52.3500 -107.6167 103° East 300 345 12,500 -1,500 Descending Winnipeg Center
Sat 06:59:41 PM 52.3167 -107.5167 119° Southeast 290 334 11,000 -1,500 Descending Winnipeg Center
Sat 07:00:41 PM 52.2833 -107.3833 112° Southeast 280 322 9,500 -1,450 Descending Winnipeg Center
Sat 07:01:41 PM 52.2667 -107.2667 103° East 270 311 8,100 -1,400 Descending Winnipeg Center
Sat 07:02:41 PM 52.2333 -107.1500 115° Southeast 250 288 6,700 -1,200 Descending Winnipeg Center
Sat 07:03:41 PM 52.2167 -107.0667 108° East 220 253 5,700 -1,050 Descending Winnipeg Center
Sat 07:04:41 PM 52.2000 -106.9833 108° East 190 219 4,600 -1,000 Descending Winnipeg Center
Sat 07:05:41 PM 52.1833 -106.9333 119° Southeast 170 196 3,700 -800 Descending Winnipeg Center
Sat 07:06:41 PM 52.1833 -106.8667 90° East 150 173 3,000 -700 Descending Winnipeg Center
Sat 07:07:41 PM 52.1667 -106.8167 119° Southeast 130 150 2,300 -650 Descending Winnipeg Center
Sat 07:08:41 PM 52.1667 -106.7500 90° East 120 138 1,700 -600 Descending Winnipeg Center

Login

Don't have an account? Register now (free) for customized features, flight alerts, and more!